sensor_id;sensor_type;location;lat;lon;timestamp;temperature;humidity
65478;SHT31;53678;39.642;22.430;2022-12-10T00:01:14;12.09;96.89
65478;SHT31;53678;39.642;22.430;2022-12-10T00:03:41;12.16;97.10
65478;SHT31;53678;39.642;22.430;2022-12-10T00:06:10;12.19;96.84
65478;SHT31;53678;39.642;22.430;2022-12-10T00:08:37;12.26;96.85
65478;SHT31;53678;39.642;22.430;2022-12-10T00:11:05;12.33;96.73
65478;SHT31;53678;39.642;22.430;2022-12-10T00:13:33;12.25;96.50
65478;SHT31;53678;39.642;22.430;2022-12-10T00:16:00;12.22;96.57
65478;SHT31;53678;39.642;22.430;2022-12-10T00:18:26;12.25;96.66
65478;SHT31;53678;39.642;22.430;2022-12-10T00:20:52;12.25;96.48
65478;SHT31;53678;39.642;22.430;2022-12-10T00:23:18;12.15;96.48
65478;SHT31;53678;39.642;22.430;2022-12-10T00:25:44;12.11;96.74
65478;SHT31;53678;39.642;22.430;2022-12-10T00:28:10;12.11;96.70
65478;SHT31;53678;39.642;22.430;2022-12-10T00:30:36;12.15;96.65
65478;SHT31;53678;39.642;22.430;2022-12-10T00:33:02;12.18;96.74
65478;SHT31;53678;39.642;22.430;2022-12-10T00:35:28;12.22;96.56
65478;SHT31;53678;39.642;22.430;2022-12-10T00:37:54;12.26;96.55
65478;SHT31;53678;39.642;22.430;2022-12-10T00:40:21;12.32;96.56
65478;SHT31;53678;39.642;22.430;2022-12-10T00:42:47;12.37;96.63
65478;SHT31;53678;39.642;22.430;2022-12-10T00:45:13;12.43;96.58
65478;SHT31;53678;39.642;22.430;2022-12-10T00:47:39;12.37;96.28
65478;SHT31;53678;39.642;22.430;2022-12-10T00:50:05;12.29;96.35
65478;SHT31;53678;39.642;22.430;2022-12-10T00:52:31;12.28;96.43
65478;SHT31;53678;39.642;22.430;2022-12-10T00:54:57;12.32;96.46
65478;SHT31;53678;39.642;22.430;2022-12-10T00:57:23;12.36;96.44
65478;SHT31;53678;39.642;22.430;2022-12-10T00:59:49;12.40;96.40
65478;SHT31;53678;39.642;22.430;2022-12-10T01:02:15;12.46;96.43
65478;SHT31;53678;39.642;22.430;2022-12-10T01:04:41;12.29;96.24
65478;SHT31;53678;39.642;22.430;2022-12-10T01:07:07;12.21;96.63
65478;SHT31;53678;39.642;22.430;2022-12-10T01:09:35;12.28;96.70
65478;SHT31;53678;39.642;22.430;2022-12-10T01:12:02;12.33;96.58
65478;SHT31;53678;39.642;22.430;2022-12-10T01:14:31;12.25;96.47
65478;SHT31;53678;39.642;22.430;2022-12-10T01:17:01;12.28;96.71
65478;SHT31;53678;39.642;22.430;2022-12-10T01:19:32;12.35;96.58
65478;SHT31;53678;39.642;22.430;2022-12-10T01:22:01;12.37;96.38
65478;SHT31;53678;39.642;22.430;2022-12-10T01:24:28;12.45;96.57
65478;SHT31;53678;39.642;22.430;2022-12-10T01:26:54;12.35;96.43
65478;SHT31;53678;39.642;22.430;2022-12-10T01:29:21;12.35;96.62
65478;SHT31;53678;39.642;22.430;2022-12-10T01:31:51;12.36;96.54
65478;SHT31;53678;39.642;22.430;2022-12-10T01:34:17;12.42;96.61
65478;SHT31;53678;39.642;22.430;2022-12-10T01:36:44;12.50;96.52
65478;SHT31;53678;39.642;22.430;2022-12-10T01:39:13;12.63;96.06
65478;SHT31;53678;39.642;22.430;2022-12-10T01:41:48;12.70;95.93
65478;SHT31;53678;39.642;22.430;2022-12-10T01:46:47;12.88;95.50
65478;SHT31;53678;39.642;22.430;2022-12-10T01:49:17;12.81;95.47
65478;SHT31;53678;39.642;22.430;2022-12-10T01:51:48;12.81;95.66
65478;SHT31;53678;39.642;22.430;2022-12-10T01:54:21;12.83;95.84
65478;SHT31;53678;39.642;22.430;2022-12-10T01:56:50;12.87;95.65
65478;SHT31;53678;39.642;22.430;2022-12-10T01:59:18;12.83;95.50
65478;SHT31;53678;39.642;22.430;2022-12-10T02:01:55;12.80;95.69
65478;SHT31;53678;39.642;22.430;2022-12-10T02:07:23;12.90;95.39
65478;SHT31;53678;39.642;22.430;2022-12-10T02:10:08;13.07;94.91
65478;SHT31;53678;39.642;22.430;2022-12-10T02:12:38;12.74;96.14
65478;SHT31;53678;39.642;22.430;2022-12-10T02:15:15;12.93;95.92
65478;SHT31;53678;39.642;22.430;2022-12-10T02:22:50;12.87;95.80
65478;SHT31;53678;39.642;22.430;2022-12-10T02:25:23;12.93;95.91
65478;SHT31;53678;39.642;22.430;2022-12-10T02:28:17;12.98;95.75
65478;SHT31;53678;39.642;22.430;2022-12-10T02:30:49;13.04;95.59
65478;SHT31;53678;39.642;22.430;2022-12-10T02:33:17;13.03;95.37
65478;SHT31;53678;39.642;22.430;2022-12-10T02:35:47;13.04;95.50
65478;SHT31;53678;39.642;22.430;2022-12-10T02:38:28;13.04;95.37
65478;SHT31;53678;39.642;22.430;2022-12-10T02:41:05;13.03;95.35
65478;SHT31;53678;39.642;22.430;2022-12-10T02:43:33;12.91;95.76
65478;SHT31;53678;39.642;22.430;2022-12-10T02:46:03;12.42;97.03
65478;SHT31;53678;39.642;22.430;2022-12-10T02:48:31;12.50;96.31
65478;SHT31;53678;39.642;22.430;2022-12-10T02:50:58;12.33;96.24
65478;SHT31;53678;39.642;22.430;2022-12-10T02:53:26;12.28;96.70
65478;SHT31;53678;39.642;22.430;2022-12-10T02:59:06;12.22;96.85
65478;SHT31;53678;39.642;22.430;2022-12-10T03:01:43;12.24;96.94
65478;SHT31;53678;39.642;22.430;2022-12-10T03:04:14;12.09;97.04
65478;SHT31;53678;39.642;22.430;2022-12-10T03:06:47;12.18;97.08
65478;SHT31;53678;39.642;22.430;2022-12-10T03:09:39;12.26;96.77
65478;SHT31;53678;39.642;22.430;2022-12-10T03:12:20;12.21;96.82
65478;SHT31;53678;39.642;22.430;2022-12-10T03:14:48;12.21;97.02
65478;SHT31;53678;39.642;22.430;2022-12-10T03:17:14;12.26;97.02
65478;SHT31;53678;39.642;22.430;2022-12-10T03:19:45;12.28;96.90
65478;SHT31;53678;39.642;22.430;2022-12-10T03:22:14;12.36;96.82
65478;SHT31;53678;39.642;22.430;2022-12-10T03:24:43;12.39;96.79
65478;SHT31;53678;39.642;22.430;2022-12-10T03:27:11;12.47;96.83
65478;SHT31;53678;39.642;22.430;2022-12-10T03:29:43;12.52;96.57
65478;SHT31;53678;39.642;22.430;2022-12-10T03:32:11;12.72;96.30
65478;SHT31;53678;39.642;22.430;2022-12-10T03:34:40;12.61;95.92
65478;SHT31;53678;39.642;22.430;2022-12-10T03:37:27;12.70;95.95
65478;SHT31;53678;39.642;22.430;2022-12-10T03:39:53;12.68;95.84
65478;SHT31;53678;39.642;22.430;2022-12-10T03:42:19;12.70;95.70
65478;SHT31;53678;39.642;22.430;2022-12-10T03:44:45;12.64;95.89
65478;SHT31;53678;39.642;22.430;2022-12-10T03:47:15;12.50;96.16
65478;SHT31;53678;39.642;22.430;2022-12-10T03:49:42;12.46;96.48
65478;SHT31;53678;39.642;22.430;2022-12-10T03:52:08;12.46;96.52
65478;SHT31;53678;39.642;22.430;2022-12-10T03:54:34;12.59;96.19
65478;SHT31;53678;39.642;22.430;2022-12-10T03:57:00;12.49;96.32
65478;SHT31;53678;39.642;22.430;2022-12-10T03:59:26;12.49;96.41
65478;SHT31;53678;39.642;22.430;2022-12-10T04:01:52;12.55;96.38
65478;SHT31;53678;39.642;22.430;2022-12-10T04:04:18;12.64;96.16
65478;SHT31;53678;39.642;22.430;2022-12-10T04:06:44;12.63;96.02
65478;SHT31;53678;39.642;22.430;2022-12-10T04:09:12;12.68;95.86
65478;SHT31;53678;39.642;22.430;2022-12-10T04:11:38;12.68;95.88
65478;SHT31;53678;39.642;22.430;2022-12-10T04:14:04;12.77;95.68
65478;SHT31;53678;39.642;22.430;2022-12-10T04:16:49;12.77;95.64
65478;SHT31;53678;39.642;22.430;2022-12-10T04:19:16;12.77;95.67
65478;SHT31;53678;39.642;22.430;2022-12-10T04:21:44;12.77;95.56
65478;SHT31;53678;39.642;22.430;2022-12-10T04:24:31;12.76;95.66
65478;SHT31;53678;39.642;22.430;2022-12-10T04:27:30;12.70;95.70
65478;SHT31;53678;39.642;22.430;2022-12-10T04:29:57;12.63;96.02
65478;SHT31;53678;39.642;22.430;2022-12-10T04:32:25;12.59;96.06
65478;SHT31;53678;39.642;22.430;2022-12-10T04:34:51;12.61;96.09
65478;SHT31;53678;39.642;22.430;2022-12-10T04:37:18;12.73;95.76
65478;SHT31;53678;39.642;22.430;2022-12-10T04:39:44;12.77;95.81
65478;SHT31;53678;39.642;22.430;2022-12-10T04:42:11;12.72;95.63
65478;SHT31;53678;39.642;22.430;2022-12-10T04:44:37;12.77;95.65
65478;SHT31;53678;39.642;22.430;2022-12-10T04:47:05;12.85;95.38
65478;SHT31;53678;39.642;22.430;2022-12-10T04:49:31;12.88;95.51
65478;SHT31;53678;39.642;22.430;2022-12-10T04:51:57;12.85;95.53
65478;SHT31;53678;39.642;22.430;2022-12-10T04:54:24;12.87;95.51
65478;SHT31;53678;39.642;22.430;2022-12-10T04:56:50;12.87;95.59
65478;SHT31;53678;39.642;22.430;2022-12-10T04:59:16;12.81;95.59
65478;SHT31;53678;39.642;22.430;2022-12-10T05:01:42;12.79;95.78
65478;SHT31;53678;39.642;22.430;2022-12-10T05:04:11;12.80;95.91
65478;SHT31;53678;39.642;22.430;2022-12-10T05:06:37;12.77;96.02
65478;SHT31;53678;39.642;22.430;2022-12-10T05:09:05;12.81;95.92
65478;SHT31;53678;39.642;22.430;2022-12-10T05:11:31;12.72;96.08
65478;SHT31;53678;39.642;22.430;2022-12-10T05:13:59;12.66;96.37
65478;SHT31;53678;39.642;22.430;2022-12-10T05:16:27;12.50;96.67
65478;SHT31;53678;39.642;22.430;2022-12-10T05:18:55;12.40;96.92
65478;SHT31;53678;39.642;22.430;2022-12-10T05:21:22;12.39;96.90
65478;SHT31;53678;39.642;22.430;2022-12-10T05:23:50;12.37;96.79
65478;SHT31;53678;39.642;22.430;2022-12-10T05:26:21;12.43;96.91
65478;SHT31;53678;39.642;22.430;2022-12-10T05:28:51;12.46;96.81
65478;SHT31;53678;39.642;22.430;2022-12-10T05:31:29;12.49;96.63
65478;SHT31;53678;39.642;22.430;2022-12-10T05:33:57;12.43;96.65
65478;SHT31;53678;39.642;22.430;2022-12-10T05:36:25;12.42;96.78
65478;SHT31;53678;39.642;22.430;2022-12-10T05:38:53;12.43;96.77
65478;SHT31;53678;39.642;22.430;2022-12-10T05:41:25;12.49;96.75
65478;SHT31;53678;39.642;22.430;2022-12-10T05:43:54;12.52;96.62
65478;SHT31;53678;39.642;22.430;2022-12-10T05:46:26;12.50;96.54
65478;SHT31;53678;39.642;22.430;2022-12-10T05:48:53;12.53;96.54
65478;SHT31;53678;39.642;22.430;2022-12-10T05:51:25;12.55;96.60
65478;SHT31;53678;39.642;22.430;2022-12-10T05:53:52;12.64;96.49
65478;SHT31;53678;39.642;22.430;2022-12-10T05:56:20;12.70;96.25
65478;SHT31;53678;39.642;22.430;2022-12-10T05:58:49;12.70;96.30
65478;SHT31;53678;39.642;22.430;2022-12-10T06:01:18;12.76;96.05
65478;SHT31;53678;39.642;22.430;2022-12-10T06:03:44;12.70;96.04
65478;SHT31;53678;39.642;22.430;2022-12-10T06:06:11;12.63;96.23
65478;SHT31;53678;39.642;22.430;2022-12-10T06:08:38;12.74;95.31
65478;SHT31;53678;39.642;22.430;2022-12-10T06:11:08;12.47;96.58
65478;SHT31;53678;39.642;22.430;2022-12-10T06:13:35;12.57;96.43
65478;SHT31;53678;39.642;22.430;2022-12-10T06:16:06;12.59;96.32
65478;SHT31;53678;39.642;22.430;2022-12-10T06:18:33;12.59;96.37
65478;SHT31;53678;39.642;22.430;2022-12-10T06:21:03;12.64;96.34
65478;SHT31;53678;39.642;22.430;2022-12-10T06:23:29;12.70;96.30
65478;SHT31;53678;39.642;22.430;2022-12-10T06:25:55;12.77;96.30
65478;SHT31;53678;39.642;22.430;2022-12-10T06:28:21;12.74;96.06
65478;SHT31;53678;39.642;22.430;2022-12-10T06:30:47;12.79;95.99
65478;SHT31;53678;39.642;22.430;2022-12-10T06:33:13;12.85;96.06
65478;SHT31;53678;39.642;22.430;2022-12-10T06:35:39;12.88;96.02
65478;SHT31;53678;39.642;22.430;2022-12-10T06:38:05;12.85;95.73
65478;SHT31;53678;39.642;22.430;2022-12-10T06:40:31;12.90;95.77
65478;SHT31;53678;39.642;22.430;2022-12-10T06:42:57;12.93;95.66
65478;SHT31;53678;39.642;22.430;2022-12-10T06:45:22;12.98;95.57
65478;SHT31;53678;39.642;22.430;2022-12-10T06:47:48;13.00;95.60
65478;SHT31;53678;39.642;22.430;2022-12-10T06:50:14;13.10;95.64
65478;SHT31;53678;39.642;22.430;2022-12-10T06:52:42;13.18;94.93
65478;SHT31;53678;39.642;22.430;2022-12-10T06:55:08;13.26;95.04
65478;SHT31;53678;39.642;22.430;2022-12-10T06:57:34;13.21;94.88
65478;SHT31;53678;39.642;22.430;2022-12-10T07:00:02;13.18;95.10
65478;SHT31;53678;39.642;22.430;2022-12-10T07:02:28;13.18;95.05
65478;SHT31;53678;39.642;22.430;2022-12-10T07:04:54;13.25;95.12
65478;SHT31;53678;39.642;22.430;2022-12-10T07:07:22;13.26;94.94
65478;SHT31;53678;39.642;22.430;2022-12-10T07:09:48;13.32;94.84
65478;SHT31;53678;39.642;22.430;2022-12-10T07:12:14;13.51;95.08
65478;SHT31;53678;39.642;22.430;2022-12-10T07:14:41;13.59;94.28
65478;SHT31;53678;39.642;22.430;2022-12-10T07:17:07;13.72;93.64
65478;SHT31;53678;39.642;22.430;2022-12-10T07:19:33;13.74;93.27
65478;SHT31;53678;39.642;22.430;2022-12-10T07:21:59;13.84;93.19
65478;SHT31;53678;39.642;22.430;2022-12-10T07:24:25;13.96;93.33
65478;SHT31;53678;39.642;22.430;2022-12-10T07:26:51;14.07;92.55
65478;SHT31;53678;39.642;22.430;2022-12-10T07:29:20;14.27;92.57
65478;SHT31;53678;39.642;22.430;2022-12-10T07:31:47;14.51;92.15
65478;SHT31;53678;39.642;22.430;2022-12-10T07:34:14;14.57;90.66
65478;SHT31;53678;39.642;22.430;2022-12-10T07:36:40;14.57;90.84
65478;SHT31;53678;39.642;22.430;2022-12-10T07:39:08;14.76;90.48
65478;SHT31;53678;39.642;22.430;2022-12-10T07:41:34;14.75;89.96
65478;SHT31;53678;39.642;22.430;2022-12-10T07:44:03;14.80;90.36
65478;SHT31;53678;39.642;22.430;2022-12-10T07:46:30;14.96;89.30
65478;SHT31;53678;39.642;22.430;2022-12-10T07:49:00;15.02;89.18
65478;SHT31;53678;39.642;22.430;2022-12-10T07:51:26;15.17;88.17
65478;SHT31;53678;39.642;22.430;2022-12-10T07:53:53;15.16;88.95
65478;SHT31;53678;39.642;22.430;2022-12-10T07:56:20;14.65;90.46
65478;SHT31;53678;39.642;22.430;2022-12-10T07:58:48;14.92;89.93
65478;SHT31;53678;39.642;22.430;2022-12-10T08:01:17;14.72;90.05
65478;SHT31;53678;39.642;22.430;2022-12-10T08:03:45;15.03;89.38
65478;SHT31;53678;39.642;22.430;2022-12-10T08:06:17;15.16;88.59
65478;SHT31;53678;39.642;22.430;2022-12-10T08:08:44;15.27;88.98
65478;SHT31;53678;39.642;22.430;2022-12-10T08:11:11;15.51;87.60
65478;SHT31;53678;39.642;22.430;2022-12-10T08:13:37;16.06;85.98
65478;SHT31;53678;39.642;22.430;2022-12-10T08:18:37;16.61;84.52
65478;SHT31;53678;39.642;22.430;2022-12-10T08:21:10;16.77;83.87
65478;SHT31;53678;39.642;22.430;2022-12-10T08:23:37;16.95;83.15
65478;SHT31;53678;39.642;22.430;2022-12-10T08:26:09;17.01;82.66
65478;SHT31;53678;39.642;22.430;2022-12-10T08:28:35;17.22;81.71
65478;SHT31;53678;39.642;22.430;2022-12-10T08:31:04;17.25;81.74
65478;SHT31;53678;39.642;22.430;2022-12-10T08:33:33;16.98;82.15
65478;SHT31;53678;39.642;22.430;2022-12-10T08:36:00;16.89;82.70
65478;SHT31;53678;39.642;22.430;2022-12-10T08:38:29;16.95;83.01
65478;SHT31;53678;39.642;22.430;2022-12-10T08:40:56;16.91;82.63
65478;SHT31;53678;39.642;22.430;2022-12-10T08:43:22;16.88;83.25
65478;SHT31;53678;39.642;22.430;2022-12-10T08:45:48;16.40;85.24
65478;SHT31;53678;39.642;22.430;2022-12-10T08:48:14;16.60;84.68
65478;SHT31;53678;39.642;22.430;2022-12-10T08:50:40;16.68;84.19
65478;SHT31;53678;39.642;22.430;2022-12-10T08:53:06;16.71;83.46
65478;SHT31;53678;39.642;22.430;2022-12-10T08:55:38;16.67;83.66
65478;SHT31;53678;39.642;22.430;2022-12-10T08:58:04;16.71;83.40
65478;SHT31;53678;39.642;22.430;2022-12-10T09:00:36;16.75;84.02
65478;SHT31;53678;39.642;22.430;2022-12-10T09:03:02;16.59;84.73
65478;SHT31;53678;39.642;22.430;2022-12-10T09:05:28;16.54;84.66
65478;SHT31;53678;39.642;22.430;2022-12-10T09:07:54;16.44;85.41
65478;SHT31;53678;39.642;22.430;2022-12-10T09:10:20;16.13;86.18
65478;SHT31;53678;39.642;22.430;2022-12-10T09:12:47;16.06;86.25
65478;SHT31;53678;39.642;22.430;2022-12-10T09:15:13;16.02;86.29
65478;SHT31;53678;39.642;22.430;2022-12-10T09:17:39;16.12;85.95
65478;SHT31;53678;39.642;22.430;2022-12-10T09:20:05;15.98;86.63
65478;SHT31;53678;39.642;22.430;2022-12-10T09:22:32;16.10;86.80
65478;SHT31;53678;39.642;22.430;2022-12-10T09:24:58;16.10;86.95
65478;SHT31;53678;39.642;22.430;2022-12-10T09:27:24;16.13;87.11
65478;SHT31;53678;39.642;22.430;2022-12-10T09:29:51;16.06;87.32
65478;SHT31;53678;39.642;22.430;2022-12-10T09:32:18;16.02;87.54
65478;SHT31;53678;39.642;22.430;2022-12-10T09:34:44;16.05;87.46
65478;SHT31;53678;39.642;22.430;2022-12-10T09:37:10;16.04;87.33
65478;SHT31;53678;39.642;22.430;2022-12-10T09:39:36;16.01;87.33
65478;SHT31;53678;39.642;22.430;2022-12-10T09:47:29;16.36;86.53
65478;SHT31;53678;39.642;22.430;2022-12-10T09:52:43;16.52;85.86
65478;SHT31;53678;39.642;22.430;2022-12-10T09:55:20;16.47;85.73
65478;SHT31;53678;39.642;22.430;2022-12-10T09:57:49;16.60;85.42
65478;SHT31;53678;39.642;22.430;2022-12-10T10:00:35;16.61;85.68
65478;SHT31;53678;39.642;22.430;2022-12-10T10:03:02;16.61;85.71
65478;SHT31;53678;39.642;22.430;2022-12-10T10:05:31;16.67;85.20
65478;SHT31;53678;39.642;22.430;2022-12-10T10:08:03;16.71;85.45
65478;SHT31;53678;39.642;22.430;2022-12-10T10:10:31;16.70;85.62
65478;SHT31;53678;39.642;22.430;2022-12-10T10:13:11;16.64;85.93
65478;SHT31;53678;39.642;22.430;2022-12-10T10:15:42;16.54;86.33
65478;SHT31;53678;39.642;22.430;2022-12-10T10:18:17;16.60;86.49
65478;SHT31;53678;39.642;22.430;2022-12-10T10:20:47;16.63;86.23
65478;SHT31;53678;39.642;22.430;2022-12-10T10:23:15;16.67;86.56
65478;SHT31;53678;39.642;22.430;2022-12-10T10:25:43;16.68;86.71
65478;SHT31;53678;39.642;22.430;2022-12-10T10:28:12;16.66;86.49
65478;SHT31;53678;39.642;22.430;2022-12-10T10:30:42;16.64;86.98
65478;SHT31;53678;39.642;22.430;2022-12-10T10:33:11;16.68;86.76
65478;SHT31;53678;39.642;22.430;2022-12-10T10:35:52;16.66;87.06
65478;SHT31;53678;39.642;22.430;2022-12-10T10:38:26;16.74;87.28
65478;SHT31;53678;39.642;22.430;2022-12-10T10:40:57;16.63;87.35
65478;SHT31;53678;39.642;22.430;2022-12-10T10:43:28;16.63;87.46
65478;SHT31;53678;39.642;22.430;2022-12-10T10:46:02;16.63;87.60
65478;SHT31;53678;39.642;22.430;2022-12-10T10:48:31;16.64;87.74
65478;SHT31;53678;39.642;22.430;2022-12-10T10:56:32;16.59;88.74
65478;SHT31;53678;39.642;22.430;2022-12-10T11:01:49;16.56;89.11
65478;SHT31;53678;39.642;22.430;2022-12-10T11:04:47;16.53;89.44
65478;SHT31;53678;39.642;22.430;2022-12-10T11:07:30;16.60;89.46
65478;SHT31;53678;39.642;22.430;2022-12-10T11:09:57;16.68;89.46
65478;SHT31;53678;39.642;22.430;2022-12-10T11:12:36;16.74;88.92
65478;SHT31;53678;39.642;22.430;2022-12-10T11:17:50;16.85;88.94
65478;SHT31;53678;39.642;22.430;2022-12-10T11:20:22;16.84;87.95
65478;SHT31;53678;39.642;22.430;2022-12-10T11:22:57;16.84;87.39
65478;SHT31;53678;39.642;22.430;2022-12-10T11:28:49;16.83;87.92
65478;SHT31;53678;39.642;22.430;2022-12-10T11:31:39;16.83;87.30
65478;SHT31;53678;39.642;22.430;2022-12-10T11:34:20;16.81;87.26
65478;SHT31;53678;39.642;22.430;2022-12-10T11:42:40;16.81;86.79
65478;SHT31;53678;39.642;22.430;2022-12-10T11:50:50;16.73;87.42
65478;SHT31;53678;39.642;22.430;2022-12-10T11:56:37;16.91;85.95
65478;SHT31;53678;39.642;22.430;2022-12-10T11:59:20;16.88;86.40
65478;SHT31;53678;39.642;22.430;2022-12-10T12:20:34;16.96;86.25
65478;SHT31;53678;39.642;22.430;2022-12-10T12:26:15;17.11;86.09
65478;SHT31;53678;39.642;22.430;2022-12-10T12:28:48;17.15;84.88
65478;SHT31;53678;39.642;22.430;2022-12-10T12:31:31;17.05;85.15
65478;SHT31;53678;39.642;22.430;2022-12-10T12:34:15;17.04;85.33
65478;SHT31;53678;39.642;22.430;2022-12-10T12:36:43;16.96;85.90
65478;SHT31;53678;39.642;22.430;2022-12-10T12:39:32;16.94;85.97
65478;SHT31;53678;39.642;22.430;2022-12-10T12:42:06;16.94;85.01
65478;SHT31;53678;39.642;22.430;2022-12-10T12:47:44;16.98;84.36
65478;SHT31;53678;39.642;22.430;2022-12-10T12:50:30;16.95;84.19
65478;SHT31;53678;39.642;22.430;2022-12-10T12:53:00;16.95;84.35
65478;SHT31;53678;39.642;22.430;2022-12-10T13:03:50;17.00;82.99
65478;SHT31;53678;39.642;22.430;2022-12-10T13:06:23;17.07;83.67
65478;SHT31;53678;39.642;22.430;2022-12-10T13:08:52;17.07;82.76
65478;SHT31;53678;39.642;22.430;2022-12-10T13:37:36;17.04;83.69
65478;SHT31;53678;39.642;22.430;2022-12-10T13:42:37;16.96;83.76
65478;SHT31;53678;39.642;22.430;2022-12-10T13:48:16;16.98;83.72
65478;SHT31;53678;39.642;22.430;2022-12-10T13:50:52;17.05;83.55
65478;SHT31;53678;39.642;22.430;2022-12-10T13:56:40;17.11;83.40
65478;SHT31;53678;39.642;22.430;2022-12-10T13:59:30;17.04;83.33
65478;SHT31;53678;39.642;22.430;2022-12-10T14:07:14;17.14;83.69
65478;SHT31;53678;39.642;22.430;2022-12-10T14:09:49;17.22;83.53
65478;SHT31;53678;39.642;22.430;2022-12-10T14:12:20;17.08;83.44
65478;SHT31;53678;39.642;22.430;2022-12-10T14:14:59;16.96;84.05
65478;SHT31;53678;39.642;22.430;2022-12-10T14:17:40;16.96;86.06
65478;SHT31;53678;39.642;22.430;2022-12-10T14:20:17;17.16;83.47
65478;SHT31;53678;39.642;22.430;2022-12-10T14:22:49;17.01;83.48
65478;SHT31;53678;39.642;22.430;2022-12-10T14:25:19;16.89;84.27
65478;SHT31;53678;39.642;22.430;2022-12-10T14:27:51;16.83;84.70
65478;SHT31;53678;39.642;22.430;2022-12-10T14:32:44;16.71;84.10
65478;SHT31;53678;39.642;22.430;2022-12-10T14:35:20;16.83;83.82
65478;SHT31;53678;39.642;22.430;2022-12-10T14:37:49;16.83;83.80
65478;SHT31;53678;39.642;22.430;2022-12-10T14:40:39;16.71;84.23
65478;SHT31;53678;39.642;22.430;2022-12-10T14:43:13;16.66;83.97
65478;SHT31;53678;39.642;22.430;2022-12-10T14:45:49;16.64;84.36
65478;SHT31;53678;39.642;22.430;2022-12-10T14:48:21;16.59;85.31
65478;SHT31;53678;39.642;22.430;2022-12-10T14:50:48;16.53;85.35
65478;SHT31;53678;39.642;22.430;2022-12-10T14:53:26;16.59;84.54
65478;SHT31;53678;39.642;22.430;2022-12-10T14:55:57;16.47;84.88
65478;SHT31;53678;39.642;22.430;2022-12-10T15:01:00;16.49;83.94
65478;SHT31;53678;39.642;22.430;2022-12-10T15:03:30;16.42;84.59
65478;SHT31;53678;39.642;22.430;2022-12-10T15:06:00;16.40;85.34
65478;SHT31;53678;39.642;22.430;2022-12-10T15:08:27;16.32;85.59
65478;SHT31;53678;39.642;22.430;2022-12-10T15:10:58;16.32;85.89
65478;SHT31;53678;39.642;22.430;2022-12-10T15:13:37;16.27;86.45
65478;SHT31;53678;39.642;22.430;2022-12-10T15:16:05;16.44;84.64
65478;SHT31;53678;39.642;22.430;2022-12-10T15:22:15;16.27;84.64
65478;SHT31;53678;39.642;22.430;2022-12-10T15:24:44;16.32;83.83
65478;SHT31;53678;39.642;22.430;2022-12-10T15:27:21;16.46;82.64
65478;SHT31;53678;39.642;22.430;2022-12-10T15:29:48;16.67;81.07
65478;SHT31;53678;39.642;22.430;2022-12-10T15:32:19;16.81;79.00
65478;SHT31;53678;39.642;22.430;2022-12-10T15:34:54;16.87;78.50
65478;SHT31;53678;39.642;22.430;2022-12-10T15:37:26;16.96;77.24
65478;SHT31;53678;39.642;22.430;2022-12-10T15:39:56;17.11;76.23
65478;SHT31;53678;39.642;22.430;2022-12-10T15:45:11;17.22;75.03
65478;SHT31;53678;39.642;22.430;2022-12-10T15:47:40;17.26;74.73
65478;SHT31;53678;39.642;22.430;2022-12-10T15:50:06;17.18;75.33
65478;SHT31;53678;39.642;22.430;2022-12-10T15:52:32;17.05;75.84
65478;SHT31;53678;39.642;22.430;2022-12-10T15:54:58;16.96;76.39
65478;SHT31;53678;39.642;22.430;2022-12-10T15:57:37;16.89;76.75
65478;SHT31;53678;39.642;22.430;2022-12-10T16:00:10;16.91;77.24
65478;SHT31;53678;39.642;22.430;2022-12-10T16:02:47;16.78;77.91
65478;SHT31;53678;39.642;22.430;2022-12-10T16:07:47;16.83;78.31
65478;SHT31;53678;39.642;22.430;2022-12-10T16:10:17;16.68;79.05
65478;SHT31;53678;39.642;22.430;2022-12-10T16:12:47;16.61;79.46
65478;SHT31;53678;39.642;22.430;2022-12-10T16:15:21;16.64;79.27
65478;SHT31;53678;39.642;22.430;2022-12-10T16:17:49;16.64;79.16
65478;SHT31;53678;39.642;22.430;2022-12-10T16:20:25;16.66;79.13
65478;SHT31;53678;39.642;22.430;2022-12-10T16:22:56;16.59;79.37
65478;SHT31;53678;39.642;22.430;2022-12-10T16:25:25;16.57;79.87
65478;SHT31;53678;39.642;22.430;2022-12-10T16:27:51;16.66;78.97
65478;SHT31;53678;39.642;22.430;2022-12-10T16:30:21;16.68;78.88
65478;SHT31;53678;39.642;22.430;2022-12-10T16:32:47;16.74;78.92
65478;SHT31;53678;39.642;22.430;2022-12-10T16:35:14;16.73;78.71
65478;SHT31;53678;39.642;22.430;2022-12-10T16:37:45;16.68;79.35
65478;SHT31;53678;39.642;22.430;2022-12-10T16:40:16;16.52;79.90
65478;SHT31;53678;39.642;22.430;2022-12-10T16:42:42;16.42;80.29
65478;SHT31;53678;39.642;22.430;2022-12-10T16:45:14;16.33;80.89
65478;SHT31;53678;39.642;22.430;2022-12-10T16:47:40;16.27;81.30
65478;SHT31;53678;39.642;22.430;2022-12-10T16:50:06;16.23;82.01
65478;SHT31;53678;39.642;22.430;2022-12-10T16:52:32;16.15;82.03
65478;SHT31;53678;39.642;22.430;2022-12-10T16:54:58;16.08;81.79
65478;SHT31;53678;39.642;22.430;2022-12-10T16:57:24;16.04;82.02
65478;SHT31;53678;39.642;22.430;2022-12-10T16:59:50;16.05;82.59
65478;SHT31;53678;39.642;22.430;2022-12-10T17:02:17;16.08;82.39
65478;SHT31;53678;39.642;22.430;2022-12-10T17:04:44;16.04;82.58
65478;SHT31;53678;39.642;22.430;2022-12-10T17:07:10;16.04;82.58
65478;SHT31;53678;39.642;22.430;2022-12-10T17:09:37;16.05;82.76
65478;SHT31;53678;39.642;22.430;2022-12-10T17:12:04;16.02;82.78
65478;SHT31;53678;39.642;22.430;2022-12-10T17:14:37;15.98;83.05
65478;SHT31;53678;39.642;22.430;2022-12-10T17:17:04;15.88;83.32
65478;SHT31;53678;39.642;22.430;2022-12-10T17:19:32;15.84;83.78
65478;SHT31;53678;39.642;22.430;2022-12-10T17:21:59;15.79;83.95
65478;SHT31;53678;39.642;22.430;2022-12-10T17:24:25;15.74;84.29
65478;SHT31;53678;39.642;22.430;2022-12-10T17:26:52;15.74;84.16
65478;SHT31;53678;39.642;22.430;2022-12-10T17:29:30;15.74;83.91
65478;SHT31;53678;39.642;22.430;2022-12-10T17:31:57;15.79;83.67
65478;SHT31;53678;39.642;22.430;2022-12-10T17:34:23;15.78;83.72
65478;SHT31;53678;39.642;22.430;2022-12-10T17:36:50;15.78;83.97
65478;SHT31;53678;39.642;22.430;2022-12-10T17:39:18;15.75;84.34
65478;SHT31;53678;39.642;22.430;2022-12-10T17:41:46;15.68;84.89
65478;SHT31;53678;39.642;22.430;2022-12-10T17:44:12;15.67;85.18
65478;SHT31;53678;39.642;22.430;2022-12-10T17:46:39;15.69;85.94
65478;SHT31;53678;39.642;22.430;2022-12-10T17:49:05;15.67;85.06
65478;SHT31;53678;39.642;22.430;2022-12-10T17:51:31;15.74;83.98